sensor_id;sensor_type;location;lat;lon;timestamp;pressure;altitude;pressure_sealevel;temperature;humidity
64115;BME280;62188;35.640;139.748;2024-03-07T00:01:45;101471.02;;;7.75;32.70
64115;BME280;62188;35.640;139.748;2024-03-07T00:04:11;101472.66;;;7.85;34.01
64115;BME280;62188;35.640;139.748;2024-03-07T00:06:37;101473.16;;;7.96;33.68
64115;BME280;62188;35.640;139.748;2024-03-07T00:09:02;101473.20;;;8.05;33.57
64115;BME280;62188;35.640;139.748;2024-03-07T00:11:28;101472.94;;;7.87;33.92
64115;BME280;62188;35.640;139.748;2024-03-07T00:13:54;101476.43;;;7.95;33.19
64115;BME280;62188;35.640;139.748;2024-03-07T00:16:20;101478.82;;;8.09;33.20
64115;BME280;62188;35.640;139.748;2024-03-07T00:18:45;101481.48;;;8.03;32.79
64115;BME280;62188;35.640;139.748;2024-03-07T00:21:11;101484.23;;;8.09;32.24
64115;BME280;62188;35.640;139.748;2024-03-07T00:23:36;101480.96;;;8.18;33.14
64115;BME280;62188;35.640;139.748;2024-03-07T00:26:04;101482.08;;;8.17;33.39
64115;BME280;62188;35.640;139.748;2024-03-07T00:28:28;101480.39;;;8.16;32.43
64115;BME280;62188;35.640;139.748;2024-03-07T00:30:54;101470.19;;;8.20;31.78
64115;BME280;62188;35.640;139.748;2024-03-07T00:33:21;101469.48;;;7.70;32.24
64115;BME280;62188;35.640;139.748;2024-03-07T00:35:45;101468.25;;;7.73;32.25
64115;BME280;62188;35.640;139.748;2024-03-07T00:38:13;101470.66;;;7.87;32.19
64115;BME280;62188;35.640;139.748;2024-03-07T00:40:36;101467.80;;;7.99;32.82
64115;BME280;62188;35.640;139.748;2024-03-07T00:43:02;101465.75;;;7.91;32.61
64115;BME280;62188;35.640;139.748;2024-03-07T00:45:28;101464.02;;;7.86;32.75
64115;BME280;62188;35.640;139.748;2024-03-07T00:47:54;101467.14;;;7.60;32.36
64115;BME280;62188;35.640;139.748;2024-03-07T00:50:19;101468.61;;;7.49;32.30
64115;BME280;62188;35.640;139.748;2024-03-07T00:52:47;101460.37;;;7.97;32.68
64115;BME280;62188;35.640;139.748;2024-03-07T00:55:11;101458.25;;;7.50;31.92
64115;BME280;62188;35.640;139.748;2024-03-07T00:57:36;101461.90;;;7.81;31.71
64115;BME280;62188;35.640;139.748;2024-03-07T01:00:03;101463.90;;;7.50;31.52
64115;BME280;62188;35.640;139.748;2024-03-07T01:02:35;101463.83;;;7.93;31.18
64115;BME280;62188;35.640;139.748;2024-03-07T01:04:54;101456.70;;;7.62;31.67
64115;BME280;62188;35.640;139.748;2024-03-07T01:07:19;101453.78;;;7.73;32.06
64115;BME280;62188;35.640;139.748;2024-03-07T01:09:48;101462.49;;;7.31;31.49
64115;BME280;62188;35.640;139.748;2024-03-07T01:12:11;101463.32;;;7.13;32.11
64115;BME280;62188;35.640;139.748;2024-03-07T01:14:37;101459.94;;;7.33;31.37
64115;BME280;62188;35.640;139.748;2024-03-07T01:17:02;101456.25;;;7.69;31.26
64115;BME280;62188;35.640;139.748;2024-03-07T01:19:28;101461.95;;;7.29;30.80
64115;BME280;62188;35.640;139.748;2024-03-07T01:21:53;101468.18;;;7.25;30.73
64115;BME280;62188;35.640;139.748;2024-03-07T01:24:19;101467.50;;;6.98;30.85
64115;BME280;62188;35.640;139.748;2024-03-07T01:26:45;101470.09;;;7.11;30.86
64115;BME280;62188;35.640;139.748;2024-03-07T01:29:11;101473.01;;;7.26;30.78
64115;BME280;62188;35.640;139.748;2024-03-07T01:31:36;101471.17;;;7.15;30.19
64115;BME280;62188;35.640;139.748;2024-03-07T01:34:02;101471.48;;;7.19;30.54
64115;BME280;62188;35.640;139.748;2024-03-07T01:36:28;101468.58;;;7.51;30.52
64115;BME280;62188;35.640;139.748;2024-03-07T01:38:54;101464.40;;;7.45;30.64
64115;BME280;62188;35.640;139.748;2024-03-07T01:41:19;101469.48;;;7.37;30.13
64115;BME280;62188;35.640;139.748;2024-03-07T01:43:45;101474.35;;;7.08;30.59
64115;BME280;62188;35.640;139.748;2024-03-07T01:46:13;101474.36;;;7.32;30.60
64115;BME280;62188;35.640;139.748;2024-03-07T01:48:37;101474.21;;;7.57;30.29
64115;BME280;62188;35.640;139.748;2024-03-07T01:51:03;101475.64;;;7.44;30.21
64115;BME280;62188;35.640;139.748;2024-03-07T01:53:29;101478.92;;;7.69;30.57
64115;BME280;62188;35.640;139.748;2024-03-07T01:55:54;101473.57;;;7.62;30.83
64115;BME280;62188;35.640;139.748;2024-03-07T01:58:20;101471.04;;;7.63;29.65
64115;BME280;62188;35.640;139.748;2024-03-07T02:00:45;101473.75;;;7.83;30.30
64115;BME280;62188;35.640;139.748;2024-03-07T02:03:15;101479.75;;;7.83;29.91
64115;BME280;62188;35.640;139.748;2024-03-07T02:05:37;101476.30;;;8.03;29.41
64115;BME280;62188;35.640;139.748;2024-03-07T02:08:03;101472.96;;;8.13;29.42
64115;BME280;62188;35.640;139.748;2024-03-07T02:10:28;101469.70;;;8.08;29.42
64115;BME280;62188;35.640;139.748;2024-03-07T02:12:54;101458.12;;;8.46;29.26
64115;BME280;62188;35.640;139.748;2024-03-07T02:15:20;101454.13;;;8.59;29.46
64115;BME280;62188;35.640;139.748;2024-03-07T02:17:47;101451.33;;;8.30;28.95
64115;BME280;62188;35.640;139.748;2024-03-07T02:20:14;101451.12;;;8.26;29.99
64115;BME280;62188;35.640;139.748;2024-03-07T02:22:37;101445.44;;;8.43;29.67
64115;BME280;62188;35.640;139.748;2024-03-07T02:25:02;101446.58;;;8.55;29.15
64115;BME280;62188;35.640;139.748;2024-03-07T02:27:28;101442.09;;;7.95;29.77
64115;BME280;62188;35.640;139.748;2024-03-07T02:29:54;101438.16;;;8.51;29.43
64115;BME280;62188;35.640;139.748;2024-03-07T02:32:20;101442.42;;;8.81;29.51
64115;BME280;62188;35.640;139.748;2024-03-07T02:34:45;101432.51;;;9.04;28.95
64115;BME280;62188;35.640;139.748;2024-03-07T02:37:11;101420.93;;;8.36;29.15
64115;BME280;62188;35.640;139.748;2024-03-07T02:39:36;101421.79;;;8.67;29.67
64115;BME280;62188;35.640;139.748;2024-03-07T02:42:04;101418.82;;;9.16;28.99
64115;BME280;62188;35.640;139.748;2024-03-07T02:44:29;101418.10;;;9.13;29.10
64115;BME280;62188;35.640;139.748;2024-03-07T02:47:01;101414.86;;;9.49;28.68
64115;BME280;62188;35.640;139.748;2024-03-07T02:49:20;101406.09;;;9.01;28.30
64115;BME280;62188;35.640;139.748;2024-03-07T02:51:45;101398.17;;;9.37;28.29
64115;BME280;62188;35.640;139.748;2024-03-07T02:54:11;101402.82;;;9.15;28.42
64115;BME280;62188;35.640;139.748;2024-03-07T02:56:36;101402.30;;;8.69;28.64
64115;BME280;62188;35.640;139.748;2024-03-07T02:59:02;101401.73;;;8.73;28.88
64115;BME280;62188;35.640;139.748;2024-03-07T03:01:28;101405.32;;;8.80;29.03
64115;BME280;62188;35.640;139.748;2024-03-07T03:03:54;101402.75;;;8.49;28.72
64115;BME280;62188;35.640;139.748;2024-03-07T03:06:19;101394.64;;;8.41;28.66
64115;BME280;62188;35.640;139.748;2024-03-07T03:08:45;101386.13;;;9.10;28.48
64115;BME280;62188;35.640;139.748;2024-03-07T03:11:11;101374.72;;;9.03;28.50
64115;BME280;62188;35.640;139.748;2024-03-07T03:13:38;101368.58;;;8.30;28.96
64115;BME280;62188;35.640;139.748;2024-03-07T03:16:10;101369.39;;;8.89;29.09
64115;BME280;62188;35.640;139.748;2024-03-07T03:18:28;101360.70;;;9.13;29.02
64115;BME280;62188;35.640;139.748;2024-03-07T03:20:56;101351.64;;;9.12;28.37
64115;BME280;62188;35.640;139.748;2024-03-07T03:23:20;101342.32;;;8.95;28.29
64115;BME280;62188;35.640;139.748;2024-03-07T03:25:45;101342.23;;;9.07;28.03
64115;BME280;62188;35.640;139.748;2024-03-07T03:28:11;101337.88;;;9.32;27.64
64115;BME280;62188;35.640;139.748;2024-03-07T03:30:37;101337.44;;;9.34;27.54
64115;BME280;62188;35.640;139.748;2024-03-07T03:33:02;101341.09;;;9.65;27.59
64115;BME280;62188;35.640;139.748;2024-03-07T03:35:28;101342.05;;;9.52;27.32
64115;BME280;62188;35.640;139.748;2024-03-07T03:37:53;101337.72;;;9.65;27.19
64115;BME280;62188;35.640;139.748;2024-03-07T03:40:19;101343.39;;;9.71;27.88
64115;BME280;62188;35.640;139.748;2024-03-07T03:42:44;101344.55;;;9.53;28.13
64115;BME280;62188;35.640;139.748;2024-03-07T03:45:11;101341.07;;;9.06;27.90
64115;BME280;62188;35.640;139.748;2024-03-07T03:47:37;101328.73;;;8.11;28.31
64115;BME280;62188;35.640;139.748;2024-03-07T03:50:02;101321.32;;;8.40;28.54
64115;BME280;62188;35.640;139.748;2024-03-07T03:52:32;101302.71;;;8.44;28.53
64115;BME280;62188;35.640;139.748;2024-03-07T03:54:53;101299.88;;;8.41;28.64
64115;BME280;62188;35.640;139.748;2024-03-07T03:57:18;101296.55;;;7.70;28.85
64115;BME280;62188;35.640;139.748;2024-03-07T03:59:45;101293.83;;;7.22;29.69
64115;BME280;62188;35.640;139.748;2024-03-07T04:02:10;101294.33;;;7.53;29.55
64115;BME280;62188;35.640;139.748;2024-03-07T04:04:38;101295.35;;;8.21;29.27
64115;BME280;62188;35.640;139.748;2024-03-07T04:07:02;101295.95;;;7.99;29.47
64115;BME280;62188;35.640;139.748;2024-03-07T04:09:27;101287.48;;;7.86;29.90
64115;BME280;62188;35.640;139.748;2024-03-07T04:11:52;101283.06;;;8.27;30.19
64115;BME280;62188;35.640;139.748;2024-03-07T04:14:18;101286.89;;;8.62;29.46
64115;BME280;62188;35.640;139.748;2024-03-07T04:16:45;101294.38;;;8.58;29.02
64115;BME280;62188;35.640;139.748;2024-03-07T04:19:09;101292.01;;;8.14;28.66
64115;BME280;62188;35.640;139.748;2024-03-07T04:21:35;101294.60;;;8.96;28.48
64115;BME280;62188;35.640;139.748;2024-03-07T04:24:01;101303.85;;;8.99;28.83
64115;BME280;62188;35.640;139.748;2024-03-07T04:26:27;101304.23;;;8.74;28.82
64115;BME280;62188;35.640;139.748;2024-03-07T04:28:52;101301.90;;;8.68;28.89
64115;BME280;62188;35.640;139.748;2024-03-07T04:31:19;101297.22;;;9.29;28.49
64115;BME280;62188;35.640;139.748;2024-03-07T04:33:44;101285.71;;;9.32;28.30
64115;BME280;62188;35.640;139.748;2024-03-07T04:36:11;101269.26;;;9.45;28.25
64115;BME280;62188;35.640;139.748;2024-03-07T04:38:35;101267.92;;;10.13;27.88
64115;BME280;62188;35.640;139.748;2024-03-07T04:41:01;101265.26;;;10.16;27.31
64115;BME280;62188;35.640;139.748;2024-03-07T04:43:26;101259.64;;;10.47;26.82
64115;BME280;62188;35.640;139.748;2024-03-07T04:45:52;101256.95;;;10.53;27.11
64115;BME280;62188;35.640;139.748;2024-03-07T04:48:18;101258.52;;;9.83;27.10
64115;BME280;62188;35.640;139.748;2024-03-07T04:50:44;101258.24;;;9.73;27.29
64115;BME280;62188;35.640;139.748;2024-03-07T04:53:10;101259.47;;;9.61;27.73
64115;BME280;62188;35.640;139.748;2024-03-07T04:55:35;101260.81;;;10.36;27.53
64115;BME280;62188;35.640;139.748;2024-03-07T04:58:01;101264.55;;;10.41;27.32
64115;BME280;62188;35.640;139.748;2024-03-07T05:00:26;101264.25;;;8.51;27.81
64115;BME280;62188;35.640;139.748;2024-03-07T05:02:52;101264.73;;;9.55;27.68
64115;BME280;62188;35.640;139.748;2024-03-07T05:05:18;101268.67;;;9.36;27.85
64115;BME280;62188;35.640;139.748;2024-03-07T05:07:45;101278.53;;;8.95;28.22
64115;BME280;62188;35.640;139.748;2024-03-07T05:10:09;101266.66;;;8.53;28.65
64115;BME280;62188;35.640;139.748;2024-03-07T05:12:35;101262.78;;;7.77;28.47
64115;BME280;62188;35.640;139.748;2024-03-07T05:15:00;101265.79;;;7.76;28.95
64115;BME280;62188;35.640;139.748;2024-03-07T05:17:26;101262.35;;;8.12;28.86
64115;BME280;62188;35.640;139.748;2024-03-07T05:19:51;101263.64;;;7.72;28.95
64115;BME280;62188;35.640;139.748;2024-03-07T05:22:17;101257.59;;;7.79;28.92
64115;BME280;62188;35.640;139.748;2024-03-07T05:24:42;101241.43;;;7.85;29.36
64115;BME280;62188;35.640;139.748;2024-03-07T05:27:09;101232.82;;;7.83;29.60
64115;BME280;62188;35.640;139.748;2024-03-07T05:29:34;101222.07;;;7.34;29.63
64115;BME280;62188;35.640;139.748;2024-03-07T05:34:24;101196.49;;;7.56;29.91
64115;BME280;62188;35.640;139.748;2024-03-07T05:36:50;101183.39;;;7.77;29.64
64115;BME280;62188;35.640;139.748;2024-03-07T05:39:17;101173.53;;;7.70;29.48
64115;BME280;62188;35.640;139.748;2024-03-07T05:41:42;101184.17;;;7.46;29.96
64115;BME280;62188;35.640;139.748;2024-03-07T05:44:08;101194.79;;;8.58;29.22
64115;BME280;62188;35.640;139.748;2024-03-07T05:46:33;101212.91;;;8.36;29.28
64115;BME280;62188;35.640;139.748;2024-03-07T05:48:59;101231.30;;;8.35;29.33
64115;BME280;62188;35.640;139.748;2024-03-07T05:51:25;101236.79;;;9.03;29.78
64115;BME280;62188;35.640;139.748;2024-03-07T05:53:50;101229.95;;;8.98;29.23
64115;BME280;62188;35.640;139.748;2024-03-07T05:56:16;101234.50;;;8.68;29.31
64115;BME280;62188;35.640;139.748;2024-03-07T05:58:42;101227.47;;;7.66;30.30
64115;BME280;62188;35.640;139.748;2024-03-07T06:01:07;101220.51;;;6.85;31.60
64115;BME280;62188;35.640;139.748;2024-03-07T06:03:35;101219.38;;;7.57;31.20
64115;BME280;62188;35.640;139.748;2024-03-07T06:05:59;101219.48;;;7.78;30.96
64115;BME280;62188;35.640;139.748;2024-03-07T06:08:25;101216.61;;;5.61;32.72
64115;BME280;62188;35.640;139.748;2024-03-07T06:10:50;101216.62;;;7.10;31.51
64115;BME280;62188;35.640;139.748;2024-03-07T06:13:16;101212.42;;;6.86;31.70
64115;BME280;62188;35.640;139.748;2024-03-07T06:15:44;101212.16;;;6.59;31.91
64115;BME280;62188;35.640;139.748;2024-03-07T06:18:08;101212.67;;;6.52;32.10
64115;BME280;62188;35.640;139.748;2024-03-07T06:20:36;101206.44;;;7.59;30.80
64115;BME280;62188;35.640;139.748;2024-03-07T06:22:59;101207.40;;;7.17;31.22
64115;BME280;62188;35.640;139.748;2024-03-07T06:25:24;101199.85;;;6.95;31.40
64115;BME280;62188;35.640;139.748;2024-03-07T06:27:50;101186.24;;;6.95;31.64
64115;BME280;62188;35.640;139.748;2024-03-07T06:30:16;101187.78;;;7.13;31.81
64115;BME280;62188;35.640;139.748;2024-03-07T06:32:42;101201.40;;;7.60;31.66
64115;BME280;62188;35.640;139.748;2024-03-07T06:35:08;101210.18;;;6.26;33.01
64115;BME280;62188;35.640;139.748;2024-03-07T06:37:33;101218.80;;;6.22;33.29
64115;BME280;62188;35.640;139.748;2024-03-07T06:40:00;101215.99;;;6.78;33.06
64115;BME280;62188;35.640;139.748;2024-03-07T06:42:24;101214.00;;;6.38;33.01
64115;BME280;62188;35.640;139.748;2024-03-07T06:44:50;101214.44;;;6.77;32.94
64115;BME280;62188;35.640;139.748;2024-03-07T06:47:15;101223.40;;;7.35;32.71
64115;BME280;62188;35.640;139.748;2024-03-07T06:49:41;101217.48;;;5.99;34.62
64115;BME280;62188;35.640;139.748;2024-03-07T06:52:07;101212.07;;;6.56;34.20
64115;BME280;62188;35.640;139.748;2024-03-07T06:54:33;101208.55;;;6.96;33.68
64115;BME280;62188;35.640;139.748;2024-03-07T06:56:59;101214.76;;;6.06;34.41
64115;BME280;62188;35.640;139.748;2024-03-07T06:59:24;101226.85;;;5.10;34.29
64115;BME280;62188;35.640;139.748;2024-03-07T07:01:50;101236.93;;;6.43;34.07
64115;BME280;62188;35.640;139.748;2024-03-07T07:04:16;101246.58;;;5.64;34.51
64115;BME280;62188;35.640;139.748;2024-03-07T07:06:43;101238.76;;;7.08;33.53
64115;BME280;62188;35.640;139.748;2024-03-07T07:09:07;101234.68;;;5.96;34.41
64115;BME280;62188;35.640;139.748;2024-03-07T07:11:33;101233.97;;;7.19;33.44
64115;BME280;62188;35.640;139.748;2024-03-07T07:13:59;101241.15;;;7.04;33.28
64115;BME280;62188;35.640;139.748;2024-03-07T07:16:24;101238.24;;;6.83;33.40
64115;BME280;62188;35.640;139.748;2024-03-07T07:18:50;101244.73;;;6.18;34.82
64115;BME280;62188;35.640;139.748;2024-03-07T07:21:16;101254.31;;;6.48;34.50
64115;BME280;62188;35.640;139.748;2024-03-07T07:23:42;101256.00;;;7.60;34.02
64115;BME280;62188;35.640;139.748;2024-03-07T07:26:07;101253.76;;;6.74;34.36
64115;BME280;62188;35.640;139.748;2024-03-07T07:28:33;101263.33;;;6.10;34.46
64115;BME280;62188;35.640;139.748;2024-03-07T07:30:59;101257.93;;;6.78;33.49
64115;BME280;62188;35.640;139.748;2024-03-07T07:33:24;101250.52;;;6.97;33.19
64115;BME280;62188;35.640;139.748;2024-03-07T07:35:50;101252.82;;;5.77;34.85
64115;BME280;62188;35.640;139.748;2024-03-07T07:38:16;101247.77;;;6.84;33.85
64115;BME280;62188;35.640;139.748;2024-03-07T07:40:42;101244.07;;;7.74;32.85
64115;BME280;62188;35.640;139.748;2024-03-07T07:43:09;101235.28;;;7.72;33.03
64115;BME280;62188;35.640;139.748;2024-03-07T07:45:33;101240.30;;;7.80;32.98
64115;BME280;62188;35.640;139.748;2024-03-07T07:48:00;101230.15;;;7.57;33.89
64115;BME280;62188;35.640;139.748;2024-03-07T07:50:25;101229.47;;;8.15;34.02
64115;BME280;62188;35.640;139.748;2024-03-07T07:52:52;101236.65;;;7.92;34.08
64115;BME280;62188;35.640;139.748;2024-03-07T07:55:18;101236.39;;;8.41;33.61
64115;BME280;62188;35.640;139.748;2024-03-07T07:57:44;101237.69;;;8.38;33.25
64115;BME280;62188;35.640;139.748;2024-03-07T08:00:08;101235.82;;;8.59;33.03
64115;BME280;62188;35.640;139.748;2024-03-07T08:02:33;101236.84;;;8.76;32.91
64115;BME280;62188;35.640;139.748;2024-03-07T08:04:58;101244.05;;;8.43;32.68
64115;BME280;62188;35.640;139.748;2024-03-07T08:07:25;101252.46;;;8.68;32.45
64115;BME280;62188;35.640;139.748;2024-03-07T08:09:50;101250.29;;;8.58;32.86
64115;BME280;62188;35.640;139.748;2024-03-07T08:12:15;101248.17;;;8.70;33.17
64115;BME280;62188;35.640;139.748;2024-03-07T08:14:41;101255.18;;;8.71;33.93
64115;BME280;62188;35.640;139.748;2024-03-07T08:17:07;101269.59;;;8.91;33.55
64115;BME280;62188;35.640;139.748;2024-03-07T08:19:33;101275.60;;;8.95;33.29
64115;BME280;62188;35.640;139.748;2024-03-07T08:21:58;101282.60;;;8.85;32.75
64115;BME280;62188;35.640;139.748;2024-03-07T08:24:24;101287.88;;;9.22;32.48
64115;BME280;62188;35.640;139.748;2024-03-07T08:26:50;101293.03;;;8.86;32.20
64115;BME280;62188;35.640;139.748;2024-03-07T08:29:15;101294.01;;;8.94;33.15
64115;BME280;62188;35.640;139.748;2024-03-07T08:31:43;101299.41;;;8.92;32.46
64115;BME280;62188;35.640;139.748;2024-03-07T08:34:07;101300.73;;;9.19;32.57
64115;BME280;62188;35.640;139.748;2024-03-07T08:36:33;101301.10;;;9.04;31.97
64115;BME280;62188;35.640;139.748;2024-03-07T08:38:58;101311.57;;;8.86;32.46
64115;BME280;62188;35.640;139.748;2024-03-07T08:41:24;101323.68;;;8.85;32.39
64115;BME280;62188;35.640;139.748;2024-03-07T08:43:49;101329.68;;;8.80;32.35
64115;BME280;62188;35.640;139.748;2024-03-07T08:46:15;101332.24;;;9.03;32.75
64115;BME280;62188;35.640;139.748;2024-03-07T08:48:41;101337.73;;;8.74;32.22
64115;BME280;62188;35.640;139.748;2024-03-07T08:51:06;101329.28;;;8.70;31.64
64115;BME280;62188;35.640;139.748;2024-03-07T08:53:32;101335.34;;;8.90;31.69
64115;BME280;62188;35.640;139.748;2024-03-07T08:55:58;101344.55;;;8.88;32.27
64115;BME280;62188;35.640;139.748;2024-03-07T08:58:23;101344.06;;;8.92;32.68
64115;BME280;62188;35.640;139.748;2024-03-07T09:00:49;101351.71;;;8.80;33.30
64115;BME280;62188;35.640;139.748;2024-03-07T09:03:14;101352.56;;;8.72;33.48
64115;BME280;62188;35.640;139.748;2024-03-07T09:05:40;101357.06;;;8.76;34.64
64115;BME280;62188;35.640;139.748;2024-03-07T09:08:09;101365.90;;;8.79;33.92
64115;BME280;62188;35.640;139.748;2024-03-07T09:10:32;101373.60;;;8.68;33.45
64115;BME280;62188;35.640;139.748;2024-03-07T09:12:57;101379.31;;;9.01;33.59
64115;BME280;62188;35.640;139.748;2024-03-07T09:15:23;101377.38;;;8.71;32.99
64115;BME280;62188;35.640;139.748;2024-03-07T09:17:48;101367.03;;;8.78;32.94
64115;BME280;62188;35.640;139.748;2024-03-07T09:20:15;101370.65;;;8.84;33.07
64115;BME280;62188;35.640;139.748;2024-03-07T09:22:42;101375.87;;;8.59;32.95
64115;BME280;62188;35.640;139.748;2024-03-07T09:25:06;101382.00;;;8.62;32.93
64115;BME280;62188;35.640;139.748;2024-03-07T09:27:31;101386.20;;;8.79;32.96
64115;BME280;62188;35.640;139.748;2024-03-07T09:29:59;101390.29;;;8.85;33.83
64115;BME280;62188;35.640;139.748;2024-03-07T09:32:22;101390.46;;;8.40;33.50
64115;BME280;62188;35.640;139.748;2024-03-07T09:34:49;101397.72;;;8.14;34.22
64115;BME280;62188;35.640;139.748;2024-03-07T09:37:14;101399.94;;;8.04;34.10
64115;BME280;62188;35.640;139.748;2024-03-07T09:39:40;101409.97;;;7.28;34.44
64115;BME280;62188;35.640;139.748;2024-03-07T09:42:08;101417.93;;;7.59;34.79
64115;BME280;62188;35.640;139.748;2024-03-07T09:44:32;101416.13;;;7.65;35.39
64115;BME280;62188;35.640;139.748;2024-03-07T09:46:57;101413.61;;;8.08;34.32
64115;BME280;62188;35.640;139.748;2024-03-07T09:49:23;101418.77;;;8.01;34.23
64115;BME280;62188;35.640;139.748;2024-03-07T09:51:50;101421.14;;;7.95;34.74
64115;BME280;62188;35.640;139.748;2024-03-07T09:54:14;101410.56;;;8.02;35.41
64115;BME280;62188;35.640;139.748;2024-03-07T09:56:40;101413.91;;;7.99;34.19
64115;BME280;62188;35.640;139.748;2024-03-07T09:59:06;101419.90;;;7.33;34.19
64115;BME280;62188;35.640;139.748;2024-03-07T10:01:34;101424.19;;;7.55;34.45
64115;BME280;62188;35.640;139.748;2024-03-07T10:03:59;101425.12;;;7.19;34.25
64115;BME280;62188;35.640;139.748;2024-03-07T10:06:22;101430.18;;;7.89;34.21
64115;BME280;62188;35.640;139.748;2024-03-07T10:08:48;101419.84;;;7.69;34.22
64115;BME280;62188;35.640;139.748;2024-03-07T10:11:13;101405.99;;;7.94;34.26
64115;BME280;62188;35.640;139.748;2024-03-07T10:13:40;101400.75;;;8.26;34.82
64115;BME280;62188;35.640;139.748;2024-03-07T10:16:07;101400.11;;;8.35;34.00
64115;BME280;62188;35.640;139.748;2024-03-07T10:18:32;101391.76;;;8.32;33.98
64115;BME280;62188;35.640;139.748;2024-03-07T10:20:56;101390.94;;;8.25;33.50
64115;BME280;62188;35.640;139.748;2024-03-07T10:23:22;101395.65;;;8.27;34.00
64115;BME280;62188;35.640;139.748;2024-03-07T10:25:48;101390.88;;;8.44;34.55
64115;BME280;62188;35.640;139.748;2024-03-07T10:28:14;101387.03;;;8.39;33.55
64115;BME280;62188;35.640;139.748;2024-03-07T10:30:41;101394.44;;;8.55;34.38
64115;BME280;62188;35.640;139.748;2024-03-07T10:33:05;101408.16;;;8.58;33.33
64115;BME280;62188;35.640;139.748;2024-03-07T10:35:32;101409.32;;;8.21;34.29
64115;BME280;62188;35.640;139.748;2024-03-07T10:37:58;101407.50;;;8.50;33.79
64115;BME280;62188;35.640;139.748;2024-03-07T10:40:22;101402.89;;;8.61;34.48
64115;BME280;62188;35.640;139.748;2024-03-07T10:42:48;101401.63;;;8.49;33.60
64115;BME280;62188;35.640;139.748;2024-03-07T10:45:17;101401.08;;;8.28;33.92
64115;BME280;62188;35.640;139.748;2024-03-07T10:47:41;101403.29;;;8.51;34.39
64115;BME280;62188;35.640;139.748;2024-03-07T10:50:13;101405.75;;;8.26;33.57
64115;BME280;62188;35.640;139.748;2024-03-07T10:52:38;101412.10;;;8.61;33.30
64115;BME280;62188;35.640;139.748;2024-03-07T10:55:07;101407.92;;;8.52;33.85
64115;BME280;62188;35.640;139.748;2024-03-07T10:57:31;101403.03;;;8.18;33.55
64115;BME280;62188;35.640;139.748;2024-03-07T10:59:58;101396.03;;;8.44;33.95
64115;BME280;62188;35.640;139.748;2024-03-07T11:02:19;101388.12;;;8.22;33.35
64115;BME280;62188;35.640;139.748;2024-03-07T11:04:39;101388.62;;;8.63;33.47
64115;BME280;62188;35.640;139.748;2024-03-07T11:07:17;101389.70;;;8.31;33.72
64115;BME280;62188;35.640;139.748;2024-03-07T11:09:31;101383.26;;;8.35;36.75
64115;BME280;62188;35.640;139.748;2024-03-07T11:11:58;101386.14;;;8.34;36.96
64115;BME280;62188;35.640;139.748;2024-03-07T11:14:21;101387.23;;;8.72;38.47
64115;BME280;62188;35.640;139.748;2024-03-07T11:16:47;101379.61;;;9.02;39.96
64115;BME280;62188;35.640;139.748;2024-03-07T11:21:43;101373.81;;;9.27;38.33
64115;BME280;62188;35.640;139.748;2024-03-07T11:24:02;101368.51;;;9.27;37.58
64115;BME280;62188;35.640;139.748;2024-03-07T11:26:28;101359.48;;;9.09;37.39
64115;BME280;62188;35.640;139.748;2024-03-07T11:28:54;101361.83;;;9.11;37.37
64115;BME280;62188;35.640;139.748;2024-03-07T11:31:26;101353.10;;;9.28;36.61
64115;BME280;62188;35.640;139.748;2024-03-07T11:36:10;101338.05;;;9.18;35.65
64115;BME280;62188;35.640;139.748;2024-03-07T11:38:35;101336.69;;;8.74;35.12
64115;BME280;62188;35.640;139.748;2024-03-07T11:41:01;101339.98;;;8.81;35.54
64115;BME280;62188;35.640;139.748;2024-03-07T11:43:29;101332.33;;;8.41;34.77
64115;BME280;62188;35.640;139.748;2024-03-07T11:45:52;101341.01;;;8.85;33.05
64115;BME280;62188;35.640;139.748;2024-03-07T11:48:17;101346.98;;;8.62;34.43
64115;BME280;62188;35.640;139.748;2024-03-07T11:50:43;101348.83;;;8.66;34.04
64115;BME280;62188;35.640;139.748;2024-03-07T11:53:10;101348.25;;;8.74;34.58
64115;BME280;62188;35.640;139.748;2024-03-07T11:55:35;101350.71;;;8.66;33.22
64115;BME280;62188;35.640;139.748;2024-03-07T11:58:01;101355.23;;;9.00;33.43
64115;BME280;62188;35.640;139.748;2024-03-07T12:00:26;101356.70;;;8.72;34.32
64115;BME280;62188;35.640;139.748;2024-03-07T12:02:53;101358.78;;;9.02;33.72
64115;BME280;62188;35.640;139.748;2024-03-07T12:05:16;101351.30;;;8.82;34.02
64115;BME280;62188;35.640;139.748;2024-03-07T12:07:42;101351.61;;;8.95;33.23
64115;BME280;62188;35.640;139.748;2024-03-07T12:10:09;101346.69;;;8.96;34.23
64115;BME280;62188;35.640;139.748;2024-03-07T12:12:33;101348.38;;;9.18;32.77
64115;BME280;62188;35.640;139.748;2024-03-07T12:14:59;101355.32;;;8.97;33.24
64115;BME280;62188;35.640;139.748;2024-03-07T12:17:24;101364.15;;;8.96;33.93
64115;BME280;62188;35.640;139.748;2024-03-07T12:19:49;101360.55;;;8.98;32.89
64115;BME280;62188;35.640;139.748;2024-03-07T12:22:18;101348.65;;;9.02;33.10
64115;BME280;62188;35.640;139.748;2024-03-07T12:24:41;101348.88;;;8.12;32.66
64115;BME280;62188;35.640;139.748;2024-03-07T12:27:10;101356.64;;;8.76;32.97
64115;BME280;62188;35.640;139.748;2024-03-07T12:29:32;101357.94;;;8.61;32.55
64115;BME280;62188;35.640;139.748;2024-03-07T12:31:59;101352.15;;;8.65;33.54
64115;BME280;62188;35.640;139.748;2024-03-07T12:34:24;101350.82;;;8.69;32.34
64115;BME280;62188;35.640;139.748;2024-03-07T12:36:49;101350.15;;;8.80;32.55
64115;BME280;62188;35.640;139.748;2024-03-07T12:39:23;101350.03;;;8.86;33.00